Rule, Arkansas
Current Conditions -  °F | °C
As of 2:53 AM on Saturday 22 Nov 2014 (Local Time) from KHRO Reporting Station
Scattered Clouds Scattered Clouds  
Wind Chill: 52°   Ceiling: Unl
Heat Index: 52°   Visibility: 10mi
Dew Point: 47°   Wind: 13mph
Humidity: 83%   Direction: 170°S
Pressure: 30.16"   Gusts: NA
Location:  36.2973°N, 93.3789°W
Report Text: KHRO 220853Z AUTO 17011KT 10SM FEW032 SCT065 11/08 A3016 RMK AO2 SLP214 T01110083 56007
Loading
Personal Weather Stations






























Interactive Weather Map New forecast layout! Learn more

10-Day Weather Forecast

Advertisements
Track Severe Weather on mobile